createdAt,value
2019-03-10T00:00:37.024Z,100033.18
2019-03-10T00:03:06.992Z,100020.29
2019-03-10T00:05:36.955Z,100017.72
2019-03-10T00:08:08.048Z,100034.78
2019-03-10T00:10:38.205Z,100040.55
2019-03-10T00:13:08.020Z,100044.84
2019-03-10T00:15:37.868Z,100053.52
2019-03-10T00:18:07.608Z,100041.70
2019-03-10T00:20:37.426Z,100046.28
2019-03-10T00:23:07.576Z,100048.02
2019-03-10T00:25:37.682Z,100042.06
2019-03-10T00:28:07.521Z,100047.11
2019-03-10T00:30:37.309Z,100048.20
2019-03-10T00:33:07.207Z,100031.53
2019-03-10T00:35:36.983Z,100035.80
2019-03-10T00:38:06.794Z,100030.11
2019-03-10T00:41:08.798Z,100035.93
2019-03-10T00:44:11.563Z,100028.23
2019-03-10T00:47:24.333Z,100038.50
2019-03-10T00:50:48.703Z,100028.91
2019-03-10T00:53:18.638Z,100036.50
2019-03-10T00:55:49.503Z,100051.74
2019-03-10T00:58:19.407Z,100042.32
2019-03-10T01:00:49.220Z,100030.23
2019-03-10T01:03:18.986Z,100030.28
2019-03-10T01:05:48.864Z,100026.73
2019-03-10T01:08:18.766Z,100026.11
2019-03-10T01:10:48.592Z,100017.77
2019-03-10T01:13:18.609Z,100017.38
2019-03-10T01:15:48.889Z,100013.33
2019-03-10T01:18:20.276Z,100018.41
2019-03-10T01:20:50.152Z,100009.96
2019-03-10T01:23:19.926Z,100009.34
2019-03-10T01:25:49.642Z,99998.48
2019-03-10T01:28:19.762Z,100005.67
2019-03-10T01:30:56.885Z,100006.12
2019-03-10T01:33:49.126Z,100008.36
2019-03-10T01:36:17.523Z,99987.91
2019-03-10T01:38:47.676Z,99962.92
2019-03-10T01:41:17.437Z,99962.92
2019-03-10T01:43:47.100Z,99975.92
2019-03-10T01:46:16.944Z,99971.58
2019-03-10T01:48:46.621Z,99974.06
2019-03-10T01:51:16.495Z,99968.55
2019-03-10T01:53:46.279Z,99955.28
2019-03-10T01:56:16.023Z,99942.58
2019-03-10T01:58:45.722Z,99930.98
2019-03-10T02:01:15.547Z,99930.98
2019-03-10T02:03:45.438Z,99921.97
2019-03-10T02:06:15.154Z,99926.53
2019-03-10T02:08:45.103Z,99918.77
2019-03-10T02:11:14.885Z,99920.22
2019-03-10T02:13:44.692Z,99927.95
2019-03-10T02:16:15.460Z,99906.00
2019-03-10T02:18:45.276Z,99892.69
2019-03-10T02:21:15.073Z,99895.93
2019-03-10T02:23:45.249Z,99898.16
2019-03-10T02:26:15.047Z,99902.97
2019-03-10T02:28:44.844Z,99892.98
2019-03-10T02:31:14.859Z,99893.13
2019-03-10T02:33:44.944Z,99883.75
2019-03-10T02:36:14.729Z,99872.34
2019-03-10T02:38:44.576Z,99876.28
2019-03-10T02:41:14.406Z,99873.54
2019-03-10T02:43:44.289Z,99859.13
2019-03-10T02:46:14.584Z,99852.72
2019-03-10T02:48:44.457Z,99852.72
2019-03-10T02:51:14.375Z,99849.00
2019-03-10T02:53:44.165Z,99837.80
2019-03-10T02:56:13.969Z,99829.09
2019-03-10T02:58:43.812Z,99825.95
2019-03-10T03:01:13.513Z,99817.38
2019-03-10T03:03:44.294Z,99808.70
2019-03-10T03:06:14.124Z,99800.61
2019-03-10T03:08:43.841Z,99796.57
2019-03-10T03:11:13.810Z,99796.57
2019-03-10T03:13:43.630Z,99791.61
2019-03-10T03:16:13.341Z,99777.98
2019-03-10T03:18:43.421Z,99783.15
2019-03-10T03:21:13.520Z,99781.14
2019-03-10T03:23:43.306Z,99759.73
2019-03-10T03:26:13.413Z,99759.65
2019-03-10T03:28:43.216Z,99752.66
2019-03-10T03:31:13.057Z,99751.64
2019-03-10T03:33:42.750Z,99752.47
2019-03-10T03:36:25.643Z,99740.25
2019-03-10T03:39:02.642Z,99741.27
2019-03-10T03:41:34.225Z,99734.69
2019-03-10T03:44:03.987Z,99740.04
2019-03-10T03:46:33.865Z,99741.06
2019-03-10T03:49:03.593Z,99736.13
2019-03-10T03:51:33.378Z,99730.55
2019-03-10T03:54:03.389Z,99735.41
2019-03-10T03:56:33.213Z,99731.28
2019-03-10T03:59:03.026Z,99724.50
2019-03-10T04:01:42.882Z,99716.63
2019-03-10T04:04:12.654Z,99706.25
2019-03-10T04:06:42.498Z,99712.20
2019-03-10T04:09:12.360Z,99701.70
2019-03-10T04:11:42.095Z,99705.14
2019-03-10T04:14:12.123Z,99693.70
2019-03-10T04:16:41.987Z,99696.04
2019-03-10T04:19:12.129Z,99693.33
2019-03-10T04:21:41.795Z,99678.57
2019-03-10T04:24:11.629Z,99666.20
2019-03-10T04:26:41.527Z,99663.42
2019-03-10T04:29:11.551Z,99655.55
2019-03-10T04:31:41.486Z,99660.03
2019-03-10T04:34:11.242Z,99661.86
2019-03-10T04:36:40.941Z,99660.73
2019-03-10T04:39:10.754Z,99651.55
2019-03-10T04:41:40.539Z,99643.23
2019-03-10T04:44:10.249Z,99645.28
2019-03-10T04:46:40.043Z,99640.69
2019-03-10T04:49:09.809Z,99640.70
2019-03-10T04:51:39.619Z,99633.02
2019-03-10T04:54:09.981Z,99631.49
2019-03-10T04:56:47.500Z,99622.41
2019-03-10T04:59:17.702Z,99616.44
2019-03-10T05:01:47.512Z,99610.56
2019-03-10T05:04:18.333Z,99609.45
2019-03-10T05:06:48.152Z,99605.71
2019-03-10T05:09:17.934Z,99591.28
2019-03-10T05:11:47.790Z,99587.73
2019-03-10T05:14:17.535Z,99591.16
2019-03-10T05:16:47.374Z,99581.02
2019-03-10T05:19:17.109Z,99585.55
2019-03-10T05:21:46.909Z,99585.95
2019-03-10T05:24:16.706Z,99583.30
2019-03-10T05:26:46.542Z,99571.30
2019-03-10T05:29:16.327Z,99571.30
2019-03-10T05:31:47.320Z,99565.61
2019-03-10T05:34:17.188Z,99560.86
2019-03-10T05:36:47.084Z,99559.84
2019-03-10T05:39:16.887Z,99559.84
2019-03-10T05:41:46.709Z,99549.91
2019-03-10T05:44:16.510Z,99540.22
2019-03-10T05:46:46.311Z,99533.33
2019-03-10T05:49:16.086Z,99537.59
2019-03-10T05:51:46.216Z,99523.03
2019-03-10T05:54:16.291Z,99523.03
2019-03-10T05:56:46.113Z,99533.09
2019-03-10T05:59:15.836Z,99520.17
2019-03-10T06:01:45.681Z,99520.17
2019-03-10T06:04:15.502Z,99516.83
2019-03-10T06:06:45.623Z,99507.55
2019-03-10T06:09:15.540Z,99502.62
2019-03-10T06:11:45.604Z,99502.62
2019-03-10T06:14:15.423Z,99488.45
2019-03-10T06:16:45.188Z,99483.24
2019-03-10T06:19:14.888Z,99477.11
2019-03-10T06:21:44.723Z,99472.95
2019-03-10T06:24:14.780Z,99462.57
2019-03-10T06:26:44.571Z,99448.18
2019-03-10T06:29:14.320Z,99447.69
2019-03-10T06:31:44.006Z,99443.73
2019-03-10T06:34:13.813Z,99441.62
2019-03-10T06:36:43.640Z,99416.02
2019-03-10T06:39:13.363Z,99416.02
2019-03-10T06:41:43.151Z,99420.87
2019-03-10T06:44:12.900Z,99419.64
2019-03-10T06:46:42.585Z,99417.74
2019-03-10T06:49:12.936Z,99406.13
2019-03-10T06:51:43.078Z,99402.10
2019-03-10T06:54:12.773Z,99392.84
2019-03-10T06:56:42.518Z,99389.21
2019-03-10T06:59:12.313Z,99378.23
2019-03-10T07:01:42.341Z,99373.59
2019-03-10T07:04:12.215Z,99368.44
2019-03-10T07:06:41.956Z,99369.55
2019-03-10T07:09:11.698Z,99352.41
2019-03-10T07:11:42.150Z,99353.32
2019-03-10T07:14:13.365Z,99348.48
2019-03-10T07:16:43.265Z,99338.59
2019-03-10T07:19:13.284Z,99334.77
2019-03-10T07:21:43.233Z,99309.47
2019-03-10T07:24:13.238Z,99317.64
2019-03-10T07:26:43.234Z,99314.37
2019-03-10T07:29:18.329Z,99308.87
2019-03-10T07:31:55.791Z,99310.28
2019-03-10T07:34:33.929Z,99309.88
2019-03-10T07:37:19.099Z,99299.19
2019-03-10T07:40:13.676Z,99295.12
2019-03-10T07:43:01.403Z,99281.66
2019-03-10T07:45:40.399Z,99269.05
2019-03-10T07:48:22.264Z,99269.05
2019-03-10T07:51:04.615Z,99261.80
2019-03-10T07:59:56.406Z,99139.19
2019-03-10T08:02:40.786Z,99135.78
2019-03-10T08:05:41.562Z,99146.89
2019-03-10T08:08:33.500Z,99130.50
2019-03-10T08:11:23.580Z,99119.05
2019-03-10T08:14:18.351Z,99119.05
2019-03-10T08:17:00.705Z,99125.52
2019-03-10T08:19:48.267Z,99104.68
2019-03-10T08:22:43.299Z,99100.28
2019-03-10T08:25:25.862Z,99100.28
2019-03-10T08:28:26.695Z,99096.63
2019-03-10T08:31:21.458Z,99074.38
2019-03-10T08:34:13.278Z,99066.58
2019-03-10T08:36:50.097Z,99055.58
2019-03-10T08:39:29.968Z,99055.58
2019-03-10T08:42:20.572Z,99043.44
2019-03-10T08:45:19.926Z,99033.37
2019-03-10T08:48:00.936Z,99033.37
2019-03-10T08:50:49.686Z,99025.73
2019-03-10T08:53:32.510Z,99035.79
2019-03-10T08:56:20.232Z,99032.23
2019-03-10T08:59:15.129Z,99008.75
2019-03-10T09:02:02.680Z,99014.55
2019-03-10T09:04:51.472Z,99014.55
2019-03-10T09:07:40.623Z,99002.72
2019-03-10T09:10:45.143Z,99000.46
2019-03-10T09:13:36.525Z,98997.61
2019-03-10T09:16:16.335Z,98980.59
2019-03-10T09:19:06.472Z,98961.94
2019-03-10T09:21:46.723Z,98964.71
2019-03-10T09:24:26.975Z,98955.48
2019-03-10T09:27:18.819Z,98944.56
2019-03-10T09:30:03.244Z,98932.29
2019-03-10T09:32:43.685Z,98934.26
2019-03-10T09:35:21.108Z,98927.75
2019-03-10T09:38:25.083Z,98896.02
2019-03-10T09:41:14.661Z,98903.78
2019-03-10T09:44:04.005Z,98902.44
2019-03-10T09:46:58.930Z,98904.50
2019-03-10T09:49:52.678Z,98887.73
2019-03-10T09:52:51.110Z,98869.05
2019-03-10T09:55:32.104Z,98857.87
2019-03-10T09:58:20.869Z,98857.87
2019-03-10T10:01:03.035Z,98852.66
2019-03-10T10:03:40.919Z,98852.27
2019-03-10T10:06:20.072Z,98835.44
2019-03-10T10:08:57.065Z,98838.89
2019-03-10T10:11:45.834Z,98820.69
2019-03-10T10:14:24.807Z,98822.70
2019-03-10T10:17:12.915Z,98802.33
2019-03-10T10:19:56.793Z,98813.53
2019-03-10T10:22:51.352Z,98808.34
2019-03-10T10:25:32.145Z,98794.50
2019-03-10T10:28:10.617Z,98793.41
2019-03-10T10:31:02.366Z,98786.97
2019-03-10T10:34:00.197Z,98779.11
2019-03-10T10:36:47.552Z,98780.21
2019-03-10T10:39:25.248Z,98774.84
2019-03-10T10:42:14.448Z,98770.17
2019-03-10T10:45:03.262Z,98747.37
2019-03-10T10:47:50.988Z,98759.78
2019-03-10T10:50:45.847Z,98741.64
2019-03-10T10:53:38.048Z,98716.77
2019-03-10T10:56:21.897Z,98708.70
2019-03-10T10:59:13.654Z,98690.84
2019-03-10T11:01:50.166Z,98710.42
2019-03-10T11:04:34.526Z,98738.86
2019-03-10T11:07:32.501Z,98731.56
2019-03-10T11:10:19.982Z,98724.11
2019-03-10T11:13:01.088Z,98703.70
2019-03-10T11:15:53.748Z,98703.34
2019-03-10T11:18:44.590Z,98703.70
2019-03-10T11:21:32.634Z,98693.64
2019-03-10T11:24:10.476Z,98686.72
2019-03-10T11:27:14.350Z,98684.42
2019-03-10T11:30:11.147Z,98684.91
2019-03-10T11:32:48.227Z,98678.12
2019-03-10T11:35:30.212Z,98672.13
2019-03-10T11:38:05.165Z,98666.56
2019-03-10T11:40:57.902Z,98671.53
2019-03-10T11:43:42.129Z,98652.69
2019-03-10T11:46:50.615Z,98638.28
2019-03-10T11:49:45.630Z,98619.44
2019-03-10T11:52:33.493Z,98622.56
2019-03-10T11:55:34.459Z,98632.38
2019-03-10T11:58:24.227Z,98618.52
2019-03-10T12:01:12.035Z,98614.45
2019-03-10T12:03:53.842Z,98608.36
2019-03-10T12:06:45.882Z,98611.70
2019-03-10T12:09:20.984Z,98606.00
2019-03-10T12:11:51.486Z,98589.29
2019-03-10T12:14:21.573Z,98587.78
2019-03-10T12:16:51.382Z,98591.55
2019-03-10T12:19:21.436Z,98585.83
2019-03-10T12:21:51.302Z,98587.74
2019-03-10T12:24:21.083Z,98571.97
2019-03-10T12:26:51.040Z,98575.15
2019-03-10T12:29:20.760Z,98553.80
2019-03-10T12:31:50.546Z,98536.28
2019-03-10T12:34:20.332Z,98556.44
2019-03-10T12:36:50.177Z,98533.08
2019-03-10T12:39:20.085Z,98514.81
2019-03-10T12:41:58.017Z,98531.70
2019-03-10T12:44:21.373Z,98524.14
2019-03-10T12:46:51.140Z,98512.14
2019-03-10T12:49:20.863Z,98508.41
2019-03-10T12:51:50.556Z,98503.08
2019-03-10T12:54:20.617Z,98489.98
2019-03-10T12:56:50.444Z,98489.23
2019-03-10T12:59:20.122Z,98494.47
2019-03-10T13:01:49.936Z,98485.16
2019-03-10T13:04:19.751Z,98491.52
2019-03-10T13:06:49.769Z,98468.48
2019-03-10T13:09:19.609Z,98459.03
2019-03-10T13:11:49.439Z,98447.94
2019-03-10T13:14:19.209Z,98439.64
2019-03-10T13:16:49.083Z,98435.78
2019-03-10T13:19:19.234Z,98428.03
2019-03-10T13:21:49.211Z,98434.52
2019-03-10T13:24:19.040Z,98444.80
2019-03-10T13:26:48.758Z,98453.06
2019-03-10T13:29:18.864Z,98462.00
2019-03-10T13:31:48.776Z,98485.27
2019-03-10T13:34:18.881Z,98466.70
2019-03-10T13:36:48.679Z,98430.31
2019-03-10T13:39:18.519Z,98418.70
2019-03-10T13:41:48.313Z,98432.34
2019-03-10T13:44:18.115Z,98418.76
2019-03-10T13:46:47.796Z,98410.60
2019-03-10T13:49:17.583Z,98395.58
2019-03-10T13:51:47.362Z,98412.82
2019-03-10T13:54:17.217Z,98396.47
2019-03-10T13:56:47.083Z,98396.47
2019-03-10T13:59:16.970Z,98403.73
2019-03-10T14:01:46.734Z,98405.69
2019-03-10T14:04:16.514Z,98396.31
2019-03-10T14:06:46.292Z,98388.78
2019-03-10T14:09:16.099Z,98381.06
2019-03-10T14:11:45.785Z,98365.09
2019-03-10T14:14:15.630Z,98355.35
2019-03-10T14:16:45.313Z,98358.39
2019-03-10T14:19:15.150Z,98357.56
2019-03-10T14:21:45.917Z,98341.53
2019-03-10T14:24:15.789Z,98329.93
2019-03-10T14:26:45.520Z,98326.09
2019-03-10T14:29:15.244Z,98317.77
2019-03-10T14:31:45.197Z,98326.05
2019-03-10T14:34:15.085Z,98314.88
2019-03-10T14:36:45.165Z,98322.08
2019-03-10T14:39:15.043Z,98314.64
2019-03-10T14:41:45.170Z,98312.74
2019-03-10T14:44:14.973Z,98321.65
2019-03-10T14:46:47.648Z,98317.25
2019-03-10T14:49:23.179Z,98311.67
2019-03-10T14:51:49.177Z,98299.44
2019-03-10T14:54:19.004Z,98303.11
2019-03-10T14:56:48.801Z,98286.35
2019-03-10T14:59:18.781Z,98312.45
2019-03-10T15:01:48.599Z,98306.64
2019-03-10T15:04:18.384Z,98293.03
2019-03-10T15:06:48.382Z,98298.31
2019-03-10T15:09:18.173Z,98354.44
2019-03-10T15:11:48.074Z,98348.02
2019-03-10T15:14:18.036Z,98356.91
2019-03-10T15:16:48.114Z,98368.56
2019-03-10T15:19:17.931Z,98369.09
2019-03-10T15:21:47.737Z,98389.62
2019-03-10T15:24:17.420Z,98388.13
2019-03-10T15:26:47.218Z,98439.66
2019-03-10T15:29:17.085Z,98413.26
2019-03-10T15:31:46.885Z,98464.56
2019-03-10T15:34:16.669Z,98457.88
2019-03-10T15:36:46.476Z,98445.87
2019-03-10T15:39:16.311Z,98452.77
2019-03-10T15:41:46.049Z,98450.81
2019-03-10T15:44:15.817Z,98435.79
2019-03-10T15:46:45.659Z,98415.84
2019-03-10T15:49:15.532Z,98458.80
2019-03-10T15:51:45.278Z,98450.71
2019-03-10T15:54:15.056Z,98453.74
2019-03-10T15:56:44.756Z,98437.63
2019-03-10T15:59:14.581Z,98464.77
2019-03-10T16:01:44.276Z,98442.55
2019-03-10T16:04:21.823Z,98455.00
2019-03-10T16:06:51.659Z,98426.67
2019-03-10T16:09:21.569Z,98426.67
2019-03-10T16:11:51.383Z,98463.80
2019-03-10T16:14:21.101Z,98484.87
2019-03-10T16:16:51.149Z,98469.34
2019-03-10T16:19:20.985Z,98467.41
2019-03-10T16:21:51.747Z,98465.47
2019-03-10T16:24:21.634Z,98467.95
2019-03-10T16:26:51.770Z,98433.06
2019-03-10T16:29:21.590Z,98458.89
2019-03-10T16:31:51.545Z,98469.70
2019-03-10T16:34:21.429Z,98512.95
2019-03-10T16:36:51.172Z,98565.31
2019-03-10T16:39:21.345Z,98579.22
2019-03-10T16:41:51.182Z,98616.75
2019-03-10T16:44:21.315Z,98659.11
2019-03-10T16:46:51.037Z,98678.16
2019-03-10T16:49:20.867Z,98706.58
2019-03-10T16:51:51.189Z,98722.69
2019-03-10T16:54:21.159Z,98741.33
2019-03-10T16:56:50.939Z,98778.06
2019-03-10T16:59:20.764Z,98784.91
2019-03-10T17:01:50.548Z,98837.36
2019-03-10T17:04:20.344Z,98879.83
2019-03-10T17:06:50.118Z,98905.95
2019-03-10T17:09:20.300Z,98948.25
2019-03-10T17:11:50.233Z,98959.47
2019-03-10T17:14:20.159Z,98984.38
2019-03-10T17:16:49.998Z,99015.05
2019-03-10T17:19:19.841Z,99051.51
2019-03-10T17:21:50.047Z,99079.78
2019-03-10T17:24:19.860Z,99111.56
2019-03-10T17:26:50.689Z,99136.44
2019-03-10T17:29:20.601Z,99161.70
2019-03-10T17:31:50.392Z,99190.66
2019-03-10T17:34:20.190Z,99220.30
2019-03-10T17:36:49.955Z,99243.19
2019-03-10T17:39:19.878Z,99257.43
2019-03-10T17:41:49.939Z,99281.75
2019-03-10T17:44:19.746Z,99301.65
2019-03-10T17:46:49.458Z,99320.80
2019-03-10T17:49:19.480Z,99344.05
2019-03-10T17:51:49.148Z,99359.80
2019-03-10T17:54:18.951Z,99380.50
2019-03-10T17:56:48.796Z,99386.30
2019-03-10T17:59:18.614Z,99399.55
2019-03-10T18:01:48.401Z,99405.44
2019-03-10T18:04:18.468Z,99436.59
2019-03-10T18:06:48.168Z,99441.53
2019-03-10T18:09:17.957Z,99456.15
2019-03-10T18:11:47.780Z,99460.16
2019-03-10T18:14:17.855Z,99472.95
2019-03-10T18:16:47.970Z,99480.07
2019-03-10T18:19:17.719Z,99491.27
2019-03-10T18:21:47.510Z,99497.63
2019-03-10T18:24:17.212Z,99507.45
2019-03-10T18:26:47.041Z,99521.94
2019-03-10T18:29:16.872Z,99529.55
2019-03-10T18:31:46.895Z,99538.22
2019-03-10T18:34:16.719Z,99559.05
2019-03-10T18:36:46.582Z,99560.14
2019-03-10T18:39:16.642Z,99562.25
2019-03-10T18:41:46.367Z,99570.40
2019-03-10T18:44:16.322Z,99578.26
2019-03-10T18:46:46.029Z,99579.91
2019-03-10T18:49:16.003Z,99587.17
2019-03-10T18:51:49.258Z,99588.64
2019-03-10T18:54:19.863Z,99595.20
2019-03-10T18:56:49.761Z,99605.45
2019-03-10T18:59:19.559Z,99605.77
2019-03-10T19:01:49.415Z,99605.56
2019-03-10T19:04:19.185Z,99610.95
2019-03-10T19:06:48.965Z,99611.05
2019-03-10T19:09:19.115Z,99616.86
2019-03-10T19:11:49.134Z,99629.94
2019-03-10T19:14:18.869Z,99621.84
2019-03-10T19:16:48.888Z,99637.33
2019-03-10T19:19:18.642Z,99634.52
2019-03-10T19:21:48.439Z,99640.23
2019-03-10T19:24:18.274Z,99650.17
2019-03-10T19:26:49.098Z,99645.41
2019-03-10T19:29:19.201Z,99659.47
2019-03-10T19:31:49.038Z,99662.65
2019-03-10T19:34:18.818Z,99670.83
2019-03-10T19:36:57.103Z,99666.19
2019-03-10T19:39:20.951Z,99673.37
2019-03-10T19:41:50.874Z,99689.88
2019-03-10T19:44:21.328Z,99694.38
2019-03-10T19:46:52.375Z,99690.08
2019-03-10T19:49:22.704Z,99710.28
2019-03-10T19:51:52.686Z,99712.13
2019-03-10T19:54:22.458Z,99714.94
2019-03-10T19:56:52.678Z,99724.14
2019-03-10T19:59:22.723Z,99731.55
2019-03-10T20:01:52.904Z,99738.62
2019-03-10T20:04:22.757Z,99739.35
2019-03-10T20:06:52.748Z,99742.84
2019-03-10T20:09:22.497Z,99744.00
2019-03-10T20:11:52.378Z,99741.66
2019-03-10T20:14:22.405Z,99744.52
2019-03-10T20:16:52.272Z,99733.87
2019-03-10T20:19:22.049Z,99739.32
2019-03-10T20:21:52.135Z,99744.09
2019-03-10T20:24:22.194Z,99751.08
2019-03-10T20:26:51.987Z,99755.13
2019-03-10T20:29:22.691Z,99759.98
2019-03-10T20:31:52.500Z,99772.67
2019-03-10T20:34:23.405Z,99764.84
2019-03-10T20:36:53.139Z,99756.19
2019-03-10T20:39:23.221Z,99749.14
2019-03-10T20:42:04.509Z,99747.69
2019-03-10T20:44:24.591Z,99775.96
2019-03-10T20:46:54.456Z,99789.83
2019-03-10T20:49:24.270Z,99794.71
2019-03-10T20:51:54.227Z,99807.35
2019-03-10T20:54:24.377Z,99802.85
2019-03-10T20:56:54.462Z,99795.42
2019-03-10T20:59:24.273Z,99785.16
2019-03-10T21:01:54.034Z,99786.91
2019-03-10T21:04:23.849Z,99800.69
2019-03-10T21:06:54.028Z,99798.20
2019-03-10T21:09:23.765Z,99804.75
2019-03-10T21:11:53.703Z,99794.55
2019-03-10T21:14:23.518Z,99805.45
2019-03-10T21:16:53.465Z,99795.41
2019-03-10T21:19:23.335Z,99791.81
2019-03-10T21:21:53.727Z,99804.03
2019-03-10T21:24:23.689Z,99812.81
2019-03-10T21:26:57.514Z,99790.05
2019-03-10T21:29:27.433Z,99798.63
2019-03-10T21:31:57.538Z,99799.16
2019-03-10T21:34:27.737Z,99819.21
2019-03-10T21:36:57.468Z,99821.86
2019-03-10T21:39:34.583Z,99826.95
2019-03-10T21:41:58.632Z,99833.98
2019-03-10T21:44:28.819Z,99837.26
2019-03-10T21:46:58.603Z,99839.75
2019-03-10T21:49:28.682Z,99840.08
2019-03-10T21:51:58.532Z,99846.68
2019-03-10T21:54:28.244Z,99853.36
2019-03-10T21:56:58.017Z,99845.84
2019-03-10T21:59:27.679Z,99842.23
2019-03-10T22:01:57.398Z,99844.66
2019-03-10T22:04:28.272Z,99867.55
2019-03-10T22:06:58.088Z,99842.13
2019-03-10T22:09:27.862Z,99846.68
2019-03-10T22:11:57.696Z,99848.59
2019-03-10T22:14:28.800Z,99842.23
2019-03-10T22:16:58.968Z,99845.73
2019-03-10T22:19:28.787Z,99865.27
2019-03-10T22:21:58.570Z,99864.15
2019-03-10T22:24:28.349Z,99853.84
2019-03-10T22:26:58.128Z,99849.18
2019-03-10T22:29:27.895Z,99851.19
2019-03-10T22:31:57.620Z,99858.50
2019-03-10T22:34:27.673Z,99862.31
2019-03-10T22:36:57.500Z,99874.59
2019-03-10T22:39:27.274Z,99864.22
2019-03-10T22:41:57.157Z,99878.30
2019-03-10T22:44:27.117Z,99880.31
2019-03-10T22:46:57.209Z,99872.73
2019-03-10T22:49:27.177Z,99874.74
2019-03-10T22:51:56.943Z,99879.20
2019-03-10T22:54:26.688Z,99881.63
2019-03-10T22:56:56.519Z,99857.91
2019-03-10T22:59:26.304Z,99873.44
2019-03-10T23:01:56.194Z,99845.58
2019-03-10T23:04:26.020Z,99858.59
2019-03-10T23:06:55.899Z,99850.87
2019-03-10T23:09:26.001Z,99860.72
2019-03-10T23:11:56.093Z,99860.18
2019-03-10T23:14:25.879Z,99862.73
2019-03-10T23:16:55.764Z,99877.72
2019-03-10T23:19:25.818Z,99871.69
2019-03-10T23:21:55.884Z,99879.52
2019-03-10T23:24:25.706Z,99888.83
2019-03-10T23:26:55.506Z,99885.96
2019-03-10T23:29:25.536Z,99872.37
2019-03-10T23:31:55.587Z,99870.08
2019-03-10T23:34:25.315Z,99880.25
2019-03-10T23:36:55.214Z,99876.44
2019-03-10T23:39:25.002Z,99876.12
2019-03-10T23:41:54.885Z,99866.23
2019-03-10T23:44:24.699Z,99869.09
2019-03-10T23:46:55.475Z,99871.73
2019-03-10T23:49:25.136Z,99885.11
2019-03-10T23:51:54.861Z,99884.64
2019-03-10T23:54:24.628Z,99890.36
2019-03-10T23:56:55.180Z,99876.18
2019-03-10T23:59:24.992Z,99882.95
